Abrolhos Island North Island, Australia
Current Conditions -  °F | °C
As of 3:04 PM on Saturday 20 Dec 2014 (Local Time) from YGEL Reporting Station
Scattered Clouds Scattered Clouds  
Wind Chill: 75°   Ceiling: Unl
Heat Index: 75°   Visibility: 6mi
Dew Point: 57°   Wind: 21mph
Humidity: 53%   Direction: 190°S
Pressure: 29.88"   Gusts: 32mph
Location:  28.3°S, 113.58°E
Report Text: YGEL 200704Z 19018G28KT 9999 FEW021 SCT025 24/14 Q1012
Loading
Personal Weather Stations






























Interactive Weather Map New forecast layout! Learn more

10-Day Weather Forecast

Advertisements
Track Severe Weather on mobile